AXB2506 VOBL-VOTV
Flight info
| Callsign | AXB2506 |
|---|---|
| Flight time | 0h 49m |
| Altitude | 36000 |
| Route | AKTIM8A AKTIM W118 CCB W43 DODSI Q13 TUMLA DINKA |
| Aircraft | A21N/M-SDE3FGHIRWY/LB1 |
Departure
| Time | 2026-05-06 18:33 |
|---|---|
| Airport | Kempegowda International Airport Bengaluru (VOBL) |
Arrival
| Time | 2026-05-06 19:23 |
|---|---|
| Airport | Thiruvananthapuram International Airport (VOTV) |
| Time | Latitude | Longitude | Altitude | Speed | Heading |
|---|---|---|---|---|---|
| 2026-05-06 18:05 | 13.20162 | 77.71062 | 2967 ft | 0 kts | 179° |
| 2026-05-06 18:18 | 13.20167 | 77.71062 | 2967 ft | 2 kts | 179° |
| 2026-05-06 18:18 | 13.20182 | 77.71062 | 2967 ft | 2 kts | 195° |
| 2026-05-06 18:18 | 13.20195 | 77.71069 | 2966 ft | 2 kts | 217° |
| 2026-05-06 18:18 | 13.20206 | 77.71081 | 2966 ft | 2 kts | 240° |
| 2026-05-06 18:19 | 13.20212 | 77.71098 | 2965 ft | 1 kts | 264° |
| 2026-05-06 18:19 | 13.20212 | 77.71099 | 2965 ft | 2 kts | 267° |
| 2026-05-06 18:19 | 13.20211 | 77.71081 | 2966 ft | 0 kts | 269° |
| 2026-05-06 18:23 | 13.20211 | 77.71062 | 2966 ft | 6 kts | 269° |
| 2026-05-06 18:24 | 13.20212 | 77.70991 | 2968 ft | 13 kts | 270° |
| 2026-05-06 18:24 | 13.20212 | 77.70875 | 2972 ft | 17 kts | 270° |
| 2026-05-06 18:24 | 13.20214 | 77.70734 | 2977 ft | 20 kts | 270° |
| 2026-05-06 18:24 | 13.20215 | 77.70571 | 2980 ft | 22 kts | 270° |
| 2026-05-06 18:25 | 13.20241 | 77.70435 | 2982 ft | 17 kts | 296° |
| 2026-05-06 18:25 | 13.20335 | 77.70393 | 2983 ft | 15 kts | 2° |
| 2026-05-06 18:25 | 13.20439 | 77.70393 | 2985 ft | 14 kts | 359° |
| 2026-05-06 18:25 | 13.20524 | 77.70370 | 2987 ft | 12 kts | 316° |
| 2026-05-06 18:26 | 13.20532 | 77.70287 | 2989 ft | 11 kts | 266° |
| 2026-05-06 18:26 | 13.20530 | 77.70211 | 2990 ft | 9 kts | 268° |
| 2026-05-06 18:26 | 13.20530 | 77.70144 | 2991 ft | 8 kts | 271° |
| 2026-05-06 18:26 | 13.20532 | 77.70061 | 2990 ft | 14 kts | 271° |
| 2026-05-06 18:27 | 13.20533 | 77.69939 | 2989 ft | 18 kts | 269° |
| 2026-05-06 18:27 | 13.20533 | 77.69795 | 2990 ft | 20 kts | 271° |
| 2026-05-06 18:27 | 13.20535 | 77.69641 | 2993 ft | 21 kts | 270° |
| 2026-05-06 18:27 | 13.20536 | 77.69479 | 2996 ft | 22 kts | 271° |
| 2026-05-06 18:28 | 13.20537 | 77.69319 | 3002 ft | 21 kts | 271° |
| 2026-05-06 18:28 | 13.20539 | 77.69168 | 3005 ft | 20 kts | 270° |
| 2026-05-06 18:28 | 13.20541 | 77.69025 | 3008 ft | 18 kts | 270° |
| 2026-05-06 18:28 | 13.20541 | 77.68900 | 3010 ft | 16 kts | 270° |
| 2026-05-06 18:29 | 13.20542 | 77.68785 | 3011 ft | 15 kts | 271° |
| 2026-05-06 18:29 | 13.20543 | 77.68729 | 3011 ft | 0 kts | 270° |
| 2026-05-06 18:30 | 13.20543 | 77.68728 | 3011 ft | 0 kts | 270° |
| 2026-05-06 18:30 | 13.20543 | 77.68714 | 3011 ft | 4 kts | 270° |
| 2026-05-06 18:31 | 13.20546 | 77.68666 | 3011 ft | 9 kts | 282° |
| 2026-05-06 18:31 | 13.20600 | 77.68614 | 3011 ft | 12 kts | 351° |
| 2026-05-06 18:31 | 13.20696 | 77.68642 | 3012 ft | 14 kts | 46° |
| 2026-05-06 18:31 | 13.20715 | 77.68734 | 3011 ft | 13 kts | 90° |
| 2026-05-06 18:32 | 13.20714 | 77.68832 | 3011 ft | 13 kts | 90° |
| 2026-05-06 18:32 | 13.20713 | 77.68926 | 3011 ft | 13 kts | 90° |
| 2026-05-06 18:32 | 13.20712 | 77.69037 | 3010 ft | 21 kts | 90° |
| 2026-05-06 18:32 | 13.20709 | 77.69341 | 3005 ft | 75 kts | 90° |
| 2026-05-06 18:33 | 13.20703 | 77.70141 | 2993 ft | 142 kts | 90° |
| 2026-05-06 18:33 | 13.20692 | 77.71352 | 3004 ft | 190 kts | 91° |
| 2026-05-06 18:33 | 13.20686 | 77.72716 | 3719 ft | 188 kts | 89° |
| 2026-05-06 18:33 | 13.21047 | 77.73958 | 4474 ft | 184 kts | 58° |
| 2026-05-06 18:34 | 13.21864 | 77.74965 | 5138 ft | 190 kts | 48° |
| 2026-05-06 18:34 | 13.22703 | 77.76072 | 5556 ft | 201 kts | 59° |
| 2026-05-06 18:34 | 13.23488 | 77.77335 | 5979 ft | 214 kts | 58° |
| 2026-05-06 18:34 | 13.24314 | 77.78712 | 6223 ft | 238 kts | 59° |
| 2026-05-06 18:35 | 13.25196 | 77.80295 | 6256 ft | 256 kts | 62° |
| 2026-05-06 18:35 | 13.26104 | 77.81969 | 6255 ft | 271 kts | 61° |
| 2026-05-06 18:35 | 13.26851 | 77.83776 | 6215 ft | 272 kts | 78° |
| 2026-05-06 18:35 | 13.27008 | 77.85732 | 6090 ft | 272 kts | 91° |
| 2026-05-06 18:36 | 13.26940 | 77.87749 | 6030 ft | 271 kts | 92° |
| 2026-05-06 18:36 | 13.26864 | 77.89766 | 6005 ft | 271 kts | 91° |
| 2026-05-06 18:36 | 13.26811 | 77.91795 | 5995 ft | 271 kts | 91° |
| 2026-05-06 18:36 | 13.26617 | 77.93778 | 6037 ft | 277 kts | 109° |
| 2026-05-06 18:37 | 13.25445 | 77.95431 | 6603 ft | 289 kts | 143° |
| 2026-05-06 18:37 | 13.23605 | 77.96231 | 7697 ft | 288 kts | 169° |
| 2026-05-06 18:37 | 13.21589 | 77.96124 | 8577 ft | 294 kts | 197° |
| 2026-05-06 18:37 | 13.19768 | 77.95003 | 9392 ft | 300 kts | 226° |
| 2026-05-06 18:38 | 13.18434 | 77.93314 | 10209 ft | 305 kts | 233° |
| 2026-05-06 18:38 | 13.17124 | 77.91514 | 10750 ft | 320 kts | 234° |
| 2026-05-06 18:38 | 13.15737 | 77.89621 | 10980 ft | 344 kts | 233° |
| 2026-05-06 18:38 | 13.14215 | 77.87579 | 10985 ft | 374 kts | 233° |
| 2026-05-06 18:39 | 13.12503 | 77.85315 | 10985 ft | 394 kts | 232° |
| 2026-05-06 18:39 | 13.10646 | 77.82880 | 10985 ft | 398 kts | 232° |
| 2026-05-06 18:39 | 13.08875 | 77.80566 | 10985 ft | 398 kts | 232° |
| 2026-05-06 18:40 | 13.05257 | 77.75841 | 10986 ft | 399 kts | 232° |
| 2026-05-06 18:40 | 13.03501 | 77.73556 | 10985 ft | 399 kts | 231° |
| 2026-05-06 18:40 | 13.01349 | 77.71538 | 10974 ft | 400 kts | 213° |
| 2026-05-06 18:40 | 12.98786 | 77.70357 | 11058 ft | 405 kts | 194° |
| 2026-05-06 18:41 | 12.95991 | 77.69885 | 11735 ft | 408 kts | 186° |
| 2026-05-06 18:41 | 12.93120 | 77.69540 | 12613 ft | 409 kts | 186° |
| 2026-05-06 18:41 | 12.90050 | 77.69177 | 13367 ft | 413 kts | 186° |
| 2026-05-06 18:41 | 12.87107 | 77.68817 | 14056 ft | 418 kts | 186° |
| 2026-05-06 18:42 | 12.84070 | 77.68436 | 14760 ft | 422 kts | 186° |
| 2026-05-06 18:42 | 12.80987 | 77.68042 | 15452 ft | 427 kts | 186° |
| 2026-05-06 18:42 | 12.77894 | 77.67643 | 16127 ft | 431 kts | 186° |
| 2026-05-06 18:42 | 12.74786 | 77.67239 | 16786 ft | 435 kts | 186° |
| 2026-05-06 18:43 | 12.71587 | 77.66823 | 17443 ft | 439 kts | 186° |
| 2026-05-06 18:43 | 12.68469 | 77.66417 | 18065 ft | 443 kts | 186° |
| 2026-05-06 18:43 | 12.65079 | 77.65975 | 18721 ft | 447 kts | 186° |
| 2026-05-06 18:43 | 12.61688 | 77.65533 | 19350 ft | 451 kts | 186° |
| 2026-05-06 18:44 | 12.58370 | 77.65101 | 19941 ft | 455 kts | 186° |
| 2026-05-06 18:44 | 12.55263 | 77.64696 | 20473 ft | 458 kts | 186° |
| 2026-05-06 18:44 | 12.51877 | 77.64255 | 21035 ft | 462 kts | 186° |
| 2026-05-06 18:44 | 12.48317 | 77.63791 | 21605 ft | 465 kts | 186° |
| 2026-05-06 18:45 | 12.44740 | 77.63326 | 22153 ft | 469 kts | 186° |
| 2026-05-06 18:45 | 12.41148 | 77.62857 | 22682 ft | 472 kts | 186° |
| 2026-05-06 18:45 | 12.37558 | 77.62390 | 23195 ft | 476 kts | 186° |
| 2026-05-06 18:45 | 12.33850 | 77.61906 | 23698 ft | 479 kts | 186° |
| 2026-05-06 18:46 | 12.30193 | 77.61430 | 24234 ft | 480 kts | 186° |
| 2026-05-06 18:46 | 12.26869 | 77.60995 | 24867 ft | 478 kts | 185° |
| 2026-05-06 18:46 | 12.23325 | 77.60532 | 25544 ft | 475 kts | 185° |
| 2026-05-06 18:46 | 12.19935 | 77.60088 | 26143 ft | 473 kts | 185° |
| 2026-05-06 18:47 | 12.16674 | 77.59663 | 26678 ft | 472 kts | 185° |
| 2026-05-06 18:47 | 12.13332 | 77.59227 | 27217 ft | 471 kts | 185° |
| 2026-05-06 18:47 | 12.09955 | 77.58744 | 27756 ft | 470 kts | 188° |
| 2026-05-06 18:47 | 12.06769 | 77.57997 | 28261 ft | 471 kts | 194° |
| 2026-05-06 18:48 | 12.03460 | 77.56830 | 28796 ft | 471 kts | 200° |
| 2026-05-06 18:48 | 12.00263 | 77.55311 | 29333 ft | 471 kts | 205° |
| 2026-05-06 18:48 | 11.97352 | 77.53791 | 29819 ft | 469 kts | 206° |
| 2026-05-06 18:48 | 11.94433 | 77.52241 | 30291 ft | 468 kts | 206° |
| 2026-05-06 18:49 | 11.91564 | 77.50721 | 30747 ft | 467 kts | 205° |
| 2026-05-06 18:49 | 11.88627 | 77.49173 | 31202 ft | 466 kts | 205° |
| 2026-05-06 18:49 | 11.85591 | 77.47581 | 31652 ft | 465 kts | 205° |
| 2026-05-06 18:49 | 11.82456 | 77.45943 | 32097 ft | 463 kts | 205° |
| 2026-05-06 18:50 | 11.79429 | 77.44365 | 32522 ft | 462 kts | 205° |
| 2026-05-06 18:50 | 11.76539 | 77.42858 | 32919 ft | 461 kts | 205° |
| 2026-05-06 18:50 | 11.73660 | 77.41359 | 33300 ft | 460 kts | 205° |
| 2026-05-06 18:50 | 11.70744 | 77.39841 | 33664 ft | 459 kts | 205° |
| 2026-05-06 18:51 | 11.67865 | 77.38342 | 34009 ft | 458 kts | 204° |
| 2026-05-06 18:51 | 11.64817 | 77.36756 | 34362 ft | 457 kts | 204° |
| 2026-05-06 18:51 | 11.61907 | 77.35243 | 34687 ft | 457 kts | 205° |
| 2026-05-06 18:51 | 11.59087 | 77.33777 | 34989 ft | 456 kts | 204° |
| 2026-05-06 18:52 | 11.56123 | 77.32235 | 35294 ft | 455 kts | 204° |
| 2026-05-06 18:52 | 11.53046 | 77.30635 | 35590 ft | 454 kts | 204° |
| 2026-05-06 18:52 | 11.50033 | 77.29069 | 35856 ft | 454 kts | 204° |
| 2026-05-06 18:53 | 11.43917 | 77.25890 | 35923 ft | 454 kts | 204° |
| 2026-05-06 18:53 | 11.37863 | 77.22749 | 35926 ft | 453 kts | 204° |
| 2026-05-06 18:54 | 11.31901 | 77.19662 | 35926 ft | 453 kts | 204° |
| 2026-05-06 18:54 | 11.26062 | 77.16640 | 35926 ft | 454 kts | 204° |
| 2026-05-06 18:55 | 11.20270 | 77.13641 | 35926 ft | 454 kts | 204° |
| 2026-05-06 18:55 | 11.14483 | 77.10648 | 35926 ft | 454 kts | 204° |
| 2026-05-06 18:56 | 11.08790 | 77.07836 | 35925 ft | 452 kts | 200° |
| 2026-05-06 18:56 | 11.02860 | 77.05780 | 35925 ft | 449 kts | 191° |
| 2026-05-06 18:57 | 10.96317 | 77.04565 | 35925 ft | 446 kts | 182° |
| 2026-05-06 18:57 | 10.89948 | 77.04180 | 35926 ft | 444 kts | 178° |
| 2026-05-06 18:58 | 10.83596 | 77.03895 | 35925 ft | 444 kts | 178° |
| 2026-05-06 18:58 | 10.77262 | 77.03599 | 35926 ft | 444 kts | 178° |
| 2026-05-06 18:59 | 10.71021 | 77.03297 | 35926 ft | 444 kts | 178° |
| 2026-05-06 18:59 | 10.64504 | 77.02980 | 35926 ft | 445 kts | 178° |
| 2026-05-06 19:00 | 10.58347 | 77.02680 | 35926 ft | 444 kts | 178° |
| 2026-05-06 19:00 | 10.51678 | 77.02354 | 35926 ft | 444 kts | 178° |
| 2026-05-06 19:01 | 10.44962 | 77.02025 | 35921 ft | 435 kts | 178° |
| 2026-05-06 19:01 | 10.38942 | 77.01730 | 35920 ft | 433 kts | 178° |
| 2026-05-06 19:02 | 10.32948 | 77.01439 | 35905 ft | 433 kts | 178° |
| 2026-05-06 19:02 | 10.29915 | 77.01292 | 35458 ft | 440 kts | 178° |
| 2026-05-06 19:02 | 10.26814 | 77.01145 | 34547 ft | 449 kts | 178° |
| 2026-05-06 19:02 | 10.23709 | 77.00996 | 33730 ft | 454 kts | 179° |
| 2026-05-06 19:03 | 10.20534 | 77.00841 | 32940 ft | 457 kts | 179° |
| 2026-05-06 19:03 | 10.17390 | 77.00689 | 32124 ft | 458 kts | 179° |
| 2026-05-06 19:03 | 10.14190 | 77.00533 | 31271 ft | 459 kts | 179° |
| 2026-05-06 19:03 | 10.11042 | 77.00381 | 30421 ft | 461 kts | 180° |
| 2026-05-06 19:04 | 10.07824 | 77.00224 | 29546 ft | 465 kts | 180° |
| 2026-05-06 19:04 | 10.04334 | 77.00055 | 28603 ft | 467 kts | 180° |
| 2026-05-06 19:04 | 10.00869 | 76.99884 | 27685 ft | 463 kts | 181° |
| 2026-05-06 19:04 | 9.97376 | 76.99712 | 26757 ft | 460 kts | 181° |
| 2026-05-06 19:05 | 9.93880 | 76.99541 | 25827 ft | 464 kts | 181° |
| 2026-05-06 19:05 | 9.90651 | 76.99384 | 24974 ft | 468 kts | 182° |
| 2026-05-06 19:05 | 9.87234 | 76.99223 | 24062 ft | 471 kts | 182° |
| 2026-05-06 19:05 | 9.83697 | 76.99056 | 23112 ft | 474 kts | 182° |
| 2026-05-06 19:06 | 9.80221 | 76.98893 | 22176 ft | 475 kts | 182° |
| 2026-05-06 19:06 | 9.76838 | 76.98732 | 21426 ft | 472 kts | 183° |
| 2026-05-06 19:06 | 9.73536 | 76.98574 | 20877 ft | 464 kts | 183° |
| 2026-05-06 19:06 | 9.70239 | 76.98416 | 20307 ft | 460 kts | 183° |
| 2026-05-06 19:07 | 9.66940 | 76.98258 | 19721 ft | 455 kts | 183° |
| 2026-05-06 19:07 | 9.63734 | 76.98104 | 19150 ft | 451 kts | 183° |
| 2026-05-06 19:07 | 9.60647 | 76.97957 | 18598 ft | 446 kts | 183° |
| 2026-05-06 19:07 | 9.57514 | 76.97807 | 18030 ft | 441 kts | 183° |
| 2026-05-06 19:08 | 9.54423 | 76.97643 | 17464 ft | 437 kts | 185° |
| 2026-05-06 19:08 | 9.51393 | 76.97328 | 16905 ft | 432 kts | 188° |
| 2026-05-06 19:08 | 9.48482 | 76.96837 | 16358 ft | 427 kts | 192° |
| 2026-05-06 19:08 | 9.45434 | 76.96150 | 15782 ft | 422 kts | 194° |
| 2026-05-06 19:09 | 9.42512 | 76.95455 | 15222 ft | 418 kts | 194° |
| 2026-05-06 19:09 | 9.39572 | 76.94752 | 14651 ft | 414 kts | 194° |
| 2026-05-06 19:09 | 9.36692 | 76.94064 | 14082 ft | 410 kts | 194° |
| 2026-05-06 19:09 | 9.33829 | 76.93382 | 13503 ft | 406 kts | 194° |
| 2026-05-06 19:10 | 9.30988 | 76.92707 | 12917 ft | 401 kts | 193° |
| 2026-05-06 19:10 | 9.28199 | 76.92045 | 12340 ft | 397 kts | 193° |
| 2026-05-06 19:10 | 9.25443 | 76.91391 | 11801 ft | 391 kts | 193° |
| 2026-05-06 19:10 | 9.22727 | 76.90748 | 11462 ft | 375 kts | 193° |
| 2026-05-06 19:11 | 9.20069 | 76.90119 | 11198 ft | 355 kts | 193° |
| 2026-05-06 19:11 | 9.17531 | 76.89519 | 10932 ft | 341 kts | 193° |
| 2026-05-06 19:11 | 9.15097 | 76.88943 | 10692 ft | 330 kts | 193° |
| 2026-05-06 19:11 | 9.12783 | 76.88395 | 10475 ft | 318 kts | 193° |
| 2026-05-06 19:12 | 9.10558 | 76.87868 | 10281 ft | 307 kts | 193° |
| 2026-05-06 19:12 | 9.08374 | 76.87351 | 10102 ft | 296 kts | 193° |
| 2026-05-06 19:12 | 9.06251 | 76.86848 | 9939 ft | 285 kts | 193° |
| 2026-05-06 19:12 | 9.04153 | 76.86352 | 9762 ft | 279 kts | 194° |
| 2026-05-06 19:13 | 9.02124 | 76.85872 | 9358 ft | 279 kts | 194° |
| 2026-05-06 19:13 | 9.00093 | 76.85391 | 8967 ft | 279 kts | 194° |
| 2026-05-06 19:13 | 8.98143 | 76.84929 | 8600 ft | 278 kts | 194° |
| 2026-05-06 19:13 | 8.96209 | 76.84471 | 8239 ft | 277 kts | 194° |
| 2026-05-06 19:14 | 8.94155 | 76.83985 | 7860 ft | 276 kts | 194° |
| 2026-05-06 19:14 | 8.92145 | 76.83509 | 7493 ft | 275 kts | 193° |
| 2026-05-06 19:14 | 8.90146 | 76.83037 | 7129 ft | 273 kts | 193° |
| 2026-05-06 19:14 | 8.88162 | 76.82568 | 6769 ft | 272 kts | 193° |
| 2026-05-06 19:15 | 8.86328 | 76.82134 | 6438 ft | 270 kts | 193° |
| 2026-05-06 19:15 | 8.84390 | 76.81675 | 6086 ft | 269 kts | 193° |
| 2026-05-06 19:15 | 8.82450 | 76.81216 | 5733 ft | 267 kts | 193° |
| 2026-05-06 19:15 | 8.80608 | 76.80781 | 5400 ft | 266 kts | 193° |
| 2026-05-06 19:16 | 8.78735 | 76.80338 | 5060 ft | 264 kts | 193° |
| 2026-05-06 19:16 | 8.76888 | 76.79902 | 4724 ft | 263 kts | 193° |
| 2026-05-06 19:16 | 8.75017 | 76.79507 | 4384 ft | 262 kts | 189° |
| 2026-05-06 19:16 | 8.73122 | 76.79221 | 4044 ft | 261 kts | 188° |
| 2026-05-06 19:17 | 8.71280 | 76.79047 | 3713 ft | 259 kts | 181° |
| 2026-05-06 19:17 | 8.69444 | 76.79107 | 3459 ft | 253 kts | 175° |
| 2026-05-06 19:17 | 8.67720 | 76.79265 | 3431 ft | 236 kts | 174° |
| 2026-05-06 19:17 | 8.66079 | 76.79427 | 3395 ft | 236 kts | 174° |
| 2026-05-06 19:18 | 8.64419 | 76.79588 | 3337 ft | 228 kts | 174° |
| 2026-05-06 19:18 | 8.62871 | 76.79736 | 3209 ft | 219 kts | 175° |
| 2026-05-06 19:18 | 8.61344 | 76.79883 | 3069 ft | 219 kts | 172° |
| 2026-05-06 19:18 | 8.60005 | 76.80402 | 2954 ft | 200 kts | 141° |
| 2026-05-06 19:19 | 8.59007 | 76.81346 | 2692 ft | 186 kts | 134° |
| 2026-05-06 19:19 | 8.58098 | 76.82287 | 2286 ft | 182 kts | 134° |
| 2026-05-06 19:19 | 8.57207 | 76.83214 | 2038 ft | 179 kts | 134° |
| 2026-05-06 19:19 | 8.56331 | 76.84100 | 1934 ft | 169 kts | 135° |
| 2026-05-06 19:20 | 8.55516 | 76.84896 | 1741 ft | 154 kts | 136° |
| 2026-05-06 19:20 | 8.54768 | 76.85619 | 1502 ft | 144 kts | 137° |
| 2026-05-06 19:20 | 8.54029 | 76.86333 | 1340 ft | 143 kts | 138° |
| 2026-05-06 19:20 | 8.53297 | 76.87041 | 1157 ft | 142 kts | 138° |
| 2026-05-06 19:21 | 8.52571 | 76.87747 | 970 ft | 142 kts | 138° |
| 2026-05-06 19:21 | 8.51851 | 76.88449 | 781 ft | 141 kts | 138° |
| 2026-05-06 19:21 | 8.51138 | 76.89143 | 590 ft | 141 kts | 138° |
| 2026-05-06 19:21 | 8.50428 | 76.89835 | 408 ft | 141 kts | 138° |
| 2026-05-06 19:22 | 8.49718 | 76.90526 | 203 ft | 140 kts | 138° |
| 2026-05-06 19:22 | 8.49016 | 76.91216 | 67 ft | 139 kts | 138° |
| 2026-05-06 19:22 | 8.48364 | 76.91844 | 36 ft | 108 kts | 136° |
| 2026-05-06 19:22 | 8.47947 | 76.92253 | 33 ft | 55 kts | 135° |
| 2026-05-06 19:23 | 8.47739 | 76.92454 | 37 ft | 30 kts | 136° |
| 2026-05-06 19:23 | 8.47654 | 76.92544 | 39 ft | 14 kts | 117° |
| 2026-05-06 19:23 | 8.47655 | 76.92602 | 40 ft | 7 kts | 59° |
| 2026-05-06 19:23 | 8.47687 | 76.92641 | 41 ft | 7 kts | 49° |
| 2026-05-06 19:24 | 8.47716 | 76.92671 | 43 ft | 4 kts | 28° |
| 2026-05-06 19:24 | 8.47744 | 76.92670 | 43 ft | 4 kts | 341° |
| 2026-05-06 19:24 | 8.47771 | 76.92649 | 43 ft | 6 kts | 317° |
| 2026-05-06 19:24 | 8.47818 | 76.92606 | 42 ft | 11 kts | 317° |
| 2026-05-06 19:25 | 8.47886 | 76.92539 | 41 ft | 15 kts | 315° |
| 2026-05-06 19:25 | 8.47974 | 76.92453 | 39 ft | 18 kts | 316° |
| 2026-05-06 19:25 | 8.48073 | 76.92357 | 37 ft | 19 kts | 316° |
| 2026-05-06 19:25 | 8.48170 | 76.92261 | 37 ft | 19 kts | 317° |
| 2026-05-06 19:26 | 8.48239 | 76.92197 | 37 ft | 10 kts | 328° |
| 2026-05-06 19:26 | 8.48307 | 76.92197 | 38 ft | 9 kts | 29° |
| 2026-05-06 19:26 | 8.48354 | 76.92238 | 40 ft | 8 kts | 41° |
| 2026-05-06 19:26 | 8.48402 | 76.92249 | 41 ft | 7 kts | 341° |
| 2026-05-06 19:27 | 8.48443 | 76.92218 | 41 ft | 7 kts | 317° |
| 2026-05-06 19:27 | 8.48483 | 76.92180 | 41 ft | 8 kts | 316° |
| 2026-05-06 19:27 | 8.48517 | 76.92145 | 41 ft | 4 kts | 315° |
| 2026-05-06 19:27 | 8.48544 | 76.92119 | 41 ft | 5 kts | 316° |
| 2026-05-06 19:28 | 8.48579 | 76.92110 | 42 ft | 5 kts | 15° |
| 2026-05-06 19:28 | 8.48605 | 76.92129 | 43 ft | 3 kts | 51° |
| 2026-05-06 19:28 | 8.48619 | 76.92145 | 43 ft | 2 kts | 46° |
| 2026-05-06 19:28 | 8.48628 | 76.92155 | 44 ft | 1 kts | 46° |
| 2026-05-06 19:29 | 8.48630 | 76.92157 | 44 ft | 0 kts | 46° |
| 2026-05-06 19:29 | 8.48631 | 76.92158 | 44 ft | 0 kts | 46° |